Altonah, Utah
Current Conditions -  °F | °C
As of 11:53 PM on Wednesday 17 Dec 2014 (Local Time) from KVEL Reporting Station
Haze Haze  
Wind Chill: 19°   Ceiling: 300
Heat Index: 25°   Visibility: 6mi
Dew Point: 23°   Wind: 5mph
Humidity: 92%   Direction: 130°SE
Pressure: 30.11"   Gusts: NA
Location:  40.4°N, 110.29°W
Report Text: KVEL 180653Z AUTO 13004KT 6SM BR OVC003 M04/M05 A3011 RMK AO2 SLP229 T10391050 410281061
Loading
Personal Weather Stations






























Interactive Weather Map New forecast layout! Learn more

10-Day Weather Forecast

Advertisements
Track Severe Weather on mobile